Time;durP1;ratioP1;P1;durP2;ratioP2;P2;SDS_P1;SDS_P2;PMS_P1;PMS_P2;Temp;Humidity;BMP_temperature;BMP_pressure;BME280_temperature;BME280_humidity;BME280_pressure;Samples;Min_cycle;Max_cycle;Signal;HPM_P1;HPM_P2
2023/10/19 00:00:44;;;;;;;;;;;19.80;69.30;;;;;;5025900;28;42967;-77
2023/10/19 00:03:11;;;;;;;;;;;19.90;69.80;;;;;;5026119;28;43100;-76
2023/10/19 00:05:37;;;;;;;;;;;19.70;71.50;;;;;;5025588;28;43035;-76
2023/10/19 00:08:22;;;;;;;;;;;19.70;71.50;;;;;;5026309;28;42925;-77
2023/10/19 00:10:55;;;;;;;;;;;19.80;71.10;;;;;;5041383;28;43956;-76
2023/10/19 00:13:22;;;;;;;;;;;19.80;71.60;;;;;;5045354;28;43027;-76
2023/10/19 00:15:51;;;;;;;;;;;19.80;71.60;;;;;;5045852;28;43464;-77
2023/10/19 00:20:53;;;;;;;;;;;19.90;71.80;;;;;;5045191;28;43123;-76
2023/10/19 00:23:28;;;;;;;;;;;19.90;71.50;;;;;;5044690;28;43458;-76
2023/10/19 00:25:54;;;;;;;;;;;19.90;71.50;;;;;;5045156;28;43910;-76
2023/10/19 00:28:22;;;;;;;;;;;19.80;71.10;;;;;;5045561;28;43245;-76
2023/10/19 00:30:49;;;;;;;;;;;19.70;71.50;;;;;;5044417;28;43097;-76
2023/10/19 00:33:20;;;;;;;;;;;19.90;71.60;;;;;;5028179;28;42976;-74
2023/10/19 00:38:39;;;;;;;;;;;19.90;70.50;;;;;;5037196;28;43196;-76
2023/10/19 00:43:45;;;;;;;;;;;19.70;69.40;;;;;;5044769;28;42754;-77
2023/10/19 00:48:55;;;;;;;;;;;19.80;69.30;;;;;;5044218;28;43003;-76
2023/10/19 00:53:54;;;;;;;;;;;19.70;70.40;;;;;;5028922;28;43020;-77
2023/10/19 00:56:23;;;;;;;;;;;19.80;71.60;;;;;;5044849;28;43170;-77
2023/10/19 00:58:53;;;;;;;;;;;19.60;71.50;;;;;;5047723;28;42948;-77
2023/10/19 01:01:25;;;;;;;;;;;19.80;71.70;;;;;;5047580;28;43087;-77
2023/10/19 01:03:52;;;;;;;;;;;19.70;69.40;;;;;;5032785;28;43191;-77
2023/10/19 01:06:20;;;;;;;;;;;19.80;71.60;;;;;;5045252;28;43303;-76
2023/10/19 01:08:46;;;;;;;;;;;19.80;71.20;;;;;;5031897;28;42993;-77
2023/10/19 01:11:15;;;;;;;;;;;19.70;71.60;;;;;;5042837;28;43675;-75
2023/10/19 01:13:44;;;;;;;;;;;19.70;71.80;;;;;;5024692;28;43150;-76
2023/10/19 01:16:20;;;;;;;;;;;19.70;71.70;;;;;;5031752;28;44444;-75
2023/10/19 01:18:53;;;;;;;;;;;19.80;69.50;;;;;;5024986;28;42903;-76
2023/10/19 01:21:24;;;;;;;;;;;19.80;69.70;;;;;;5030534;28;43899;-77
2023/10/19 01:23:50;;;;;;;;;;;19.90;71.90;;;;;;5023712;28;43181;-77
2023/10/19 01:26:22;;;;;;;;;;;19.80;71.40;;;;;;5036896;28;43289;-75
2023/10/19 01:28:48;;;;;;;;;;;19.80;69.00;;;;;;5042114;28;43008;-75
2023/10/19 01:33:57;;;;;;;;;;;19.80;69.70;;;;;;5043718;28;42945;-76
2023/10/19 01:38:53;;;;;;;;;;;19.90;72.10;;;;;;5043631;28;42983;-77
2023/10/19 01:41:19;;;;;;;;;;;19.70;71.90;;;;;;5043248;28;43059;-77
2023/10/19 01:43:48;;;;;;;;;;;19.80;72.00;;;;;;5042644;28;42930;-76
2023/10/19 01:46:21;;;;;;;;;;;19.90;72.10;;;;;;5031199;28;43857;-76
2023/10/19 01:48:49;;;;;;;;;;;19.80;72.10;;;;;;5025550;28;43248;-75
2023/10/19 01:51:15;;;;;;;;;;;19.90;71.90;;;;;;5039492;28;42947;-77
2023/10/19 01:53:43;;;;;;;;;;;19.80;71.90;;;;;;5010878;28;43143;-76
2023/10/19 01:56:09;;;;;;;;;;;19.80;72.00;;;;;;5044244;28;42923;-75
2023/10/19 01:58:39;;;;;;;;;;;19.70;72.00;;;;;;5043239;28;42960;-75
2023/10/19 02:01:13;;;;;;;;;;;19.80;72.10;;;;;;5035759;28;42924;-77
2023/10/19 02:03:42;;;;;;;;;;;19.80;72.10;;;;;;5044068;28;43016;-75
2023/10/19 02:06:16;;;;;;;;;;;19.90;72.00;;;;;;5044004;28;43901;-76
2023/10/19 02:08:48;;;;;;;;;;;19.90;71.00;;;;;;5043414;28;43310;-75
2023/10/19 02:11:18;;;;;;;;;;;20.00;69.90;;;;;;5045839;28;43800;-76
2023/10/19 02:13:46;;;;;;;;;;;19.90;71.60;;;;;;5047359;28;42910;-76
2023/10/19 02:16:14;;;;;;;;;;;19.70;69.90;;;;;;5047981;28;43643;-77
2023/10/19 02:18:40;;;;;;;;;;;19.80;72.10;;;;;;5047221;28;42931;-77
2023/10/19 02:21:06;;;;;;;;;;;19.80;72.20;;;;;;5047651;28;44579;-75
2023/10/19 02:23:34;;;;;;;;;;;19.70;72.00;;;;;;5034277;28;42953;-76
2023/10/19 02:26:00;;;;;;;;;;;19.70;72.30;;;;;;5028821;28;43093;-76
2023/10/19 02:31:28;;;;;;;;;;;19.80;70.00;;;;;;5046954;28;43205;-75
2023/10/19 02:34:00;;;;;;;;;;;19.60;71.90;;;;;;5035794;28;43001;-77
2023/10/19 02:36:29;;;;;;;;;;;19.70;71.80;;;;;;5047507;28;42927;-76
2023/10/19 02:39:04;;;;;;;;;;;19.80;71.70;;;;;;5042725;28;42845;-78
2023/10/19 02:41:29;;;;;;;;;;;19.80;71.90;;;;;;5032192;28;43579;-75
2023/10/19 02:46:31;;;;;;;;;;;19.80;72.10;;;;;;5046879;28;43406;-75
2023/10/19 02:49:03;;;;;;;;;;;20.00;71.90;;;;;;5022180;28;42857;-76
2023/10/19 02:51:31;;;;;;;;;;;19.70;70.70;;;;;;5027637;28;43046;-77
2023/10/19 02:54:01;;;;;;;;;;;19.70;70.10;;;;;;5045153;28;42976;-77
2023/10/19 02:56:29;;;;;;;;;;;19.80;71.90;;;;;;5047327;28;43548;-75
2023/10/19 02:59:01;;;;;;;;;;;19.80;71.90;;;;;;5037571;28;43001;-77
2023/10/19 03:01:30;;;;;;;;;;;19.70;72.40;;;;;;5039417;28;43621;-76
2023/10/19 03:03:59;;;;;;;;;;;19.90;72.50;;;;;;5046955;28;42995;-76
2023/10/19 03:06:26;;;;;;;;;;;19.80;72.40;;;;;;5037891;28;43564;-74
2023/10/19 03:08:57;;;;;;;;;;;19.90;72.00;;;;;;5040490;28;43280;-76
2023/10/19 03:11:24;;;;;;;;;;;19.70;70.70;;;;;;5047067;28;43527;-75
2023/10/19 03:13:50;;;;;;;;;;;19.70;72.50;;;;;;5033984;28;43075;-77
2023/10/19 03:16:17;;;;;;;;;;;19.80;72.60;;;;;;5026760;28;43560;-76
2023/10/19 03:18:42;;;;;;;;;;;19.60;72.30;;;;;;5029128;28;43059;-76
2023/10/19 03:21:10;;;;;;;;;;;19.80;72.10;;;;;;5046166;28;43098;-76
2023/10/19 03:23:37;;;;;;;;;;;19.80;72.40;;;;;;5034230;28;43005;-76
2023/10/19 03:29:14;;;;;;;;;;;19.70;72.40;;;;;;5009850;28;43052;-77
2023/10/19 03:31:47;;;;;;;;;;;19.90;70.70;;;;;;5004650;28;43087;-75
2023/10/19 03:34:13;;;;;;;;;;;19.80;71.70;;;;;;5006545;28;43003;-75
2023/10/19 03:36:39;;;;;;;;;;;19.80;72.50;;;;;;5004401;28;42970;-77
2023/10/19 03:39:11;;;;;;;;;;;19.80;72.00;;;;;;5005252;28;43082;-76
2023/10/19 03:41:39;;;;;;;;;;;19.80;72.40;;;;;;4997231;28;44123;-75
2023/10/19 03:44:04;;;;;;;;;;;19.90;72.50;;;;;;4984960;28;43047;-75
2023/10/19 03:46:31;;;;;;;;;;;19.80;71.90;;;;;;5004346;28;43073;-75
2023/10/19 03:49:04;;;;;;;;;;;19.80;72.30;;;;;;5003632;28;43042;-75
2023/10/19 03:51:40;;;;;;;;;;;19.90;72.60;;;;;;5003897;28;43775;-75
2023/10/19 03:54:24;;;;;;;;;;;19.80;72.50;;;;;;4620462;28;43930;-74
2023/10/19 03:56:50;;;;;;;;;;;19.70;70.20;;;;;;5023932;28;43352;-75
2023/10/19 03:59:17;;;;;;;;;;;20.00;72.00;;;;;;5020748;28;43005;-77
2023/10/19 04:01:43;;;;;;;;;;;19.90;72.60;;;;;;5022713;28;43091;-76
2023/10/19 04:04:09;;;;;;;;;;;20.00;71.90;;;;;;5030130;28;43155;-76
2023/10/19 04:06:35;;;;;;;;;;;19.90;72.00;;;;;;5034925;28;43551;-75
2023/10/19 04:09:01;;;;;;;;;;;19.90;72.00;;;;;;5042636;28;43144;-76
2023/10/19 04:11:32;;;;;;;;;;;19.30;71.60;;;;;;5042326;28;43782;-75
2023/10/19 04:14:03;;;;;;;;;;;19.80;71.90;;;;;;5033580;28;42962;-76
2023/10/19 04:16:29;;;;;;;;;;;19.80;72.50;;;;;;5032868;28;42930;-77
2023/10/19 04:21:30;;;;;;;;;;;19.80;71.00;;;;;;5024151;28;43267;-78
2023/10/19 04:23:56;;;;;;;;;;;19.80;71.00;;;;;;5391989;22;43014;-76
2023/10/19 04:26:24;;;;;;;;;;;19.90;71.60;;;;;;5065394;28;43546;-76
2023/10/19 04:28:50;;;;;;;;;;;19.70;72.00;;;;;;5051203;28;45304;-76
2023/10/19 04:31:19;;;;;;;;;;;19.90;72.50;;;;;;5040314;28;44329;-76
2023/10/19 04:34:07;;;;;;;;;;;19.80;70.50;;;;;;5025248;28;43057;-76
2023/10/19 04:36:33;;;;;;;;;;;19.80;72.10;;;;;;5024711;28;43543;-76
2023/10/19 04:39:00;;;;;;;;;;;19.80;72.70;;;;;;5027977;28;43285;-74
2023/10/19 04:41:27;;;;;;;;;;;19.70;72.50;;;;;;5022464;28;45173;-74
2023/10/19 04:43:54;;;;;;;;;;;19.90;72.60;;;;;;5035766;28;43142;-76
2023/10/19 04:46:20;;;;;;;;;;;19.90;72.80;;;;;;5033936;28;44546;-76
2023/10/19 04:48:45;;;;;;;;;;;19.80;73.10;;;;;;5031664;28;43100;-76
2023/10/19 04:51:12;;;;;;;;;;;19.80;72.90;;;;;;5025953;28;43703;-76
2023/10/19 04:53:38;;;;;;;;;;;19.80;72.00;;;;;;5024545;28;43509;-76
2023/10/19 04:56:05;;;;;;;;;;;19.50;72.30;;;;;;5021785;28;42961;-77
2023/10/19 04:58:30;;;;;;;;;;;19.80;73.20;;;;;;5037258;28;43189;-76
2023/10/19 05:00:58;;;;;;;;;;;19.90;73.20;;;;;;5026292;28;44511;-76
2023/10/19 05:03:24;;;;;;;;;;;19.80;72.70;;;;;;5035317;28;43283;-76
2023/10/19 05:05:49;;;;;;;;;;;19.90;73.20;;;;;;5053796;28;43957;-77
2023/10/19 05:08:15;;;;;;;;;;;19.80;73.10;;;;;;5051731;28;42952;-76
2023/10/19 05:11:11;;;;;;;;;;;20.00;74.10;;;;;;5058291;28;43225;-76
2023/10/19 05:13:37;;;;;;;;;;;20.00;72.20;;;;;;5049449;28;42955;-75
2023/10/19 05:16:02;;;;;;;;;;;19.90;73.30;;;;;;5058212;28;43505;-76
2023/10/19 05:18:28;;;;;;;;;;;19.80;72.90;;;;;;5059738;28;43192;-76
2023/10/19 05:20:56;;;;;;;;;;;19.80;73.50;;;;;;5051857;28;43439;-76
2023/10/19 05:23:25;;;;;;;;;;;19.80;71.60;;;;;;5055429;28;43100;-75
2023/10/19 05:25:53;;;;;;;;;;;19.90;73.20;;;;;;5054103;28;43430;-74
2023/10/19 05:28:19;;;;;;;;;;;19.80;73.30;;;;;;5055690;28;43189;-76
2023/10/19 05:30:44;;;;;;;;;;;19.90;72.70;;;;;;5054255;28;42991;-75
2023/10/19 05:33:10;;;;;;;;;;;19.80;73.50;;;;;;5049457;28;42980;-76
2023/10/19 05:35:40;;;;;;;;;;;19.90;73.30;;;;;;5054611;28;42983;-76
2023/10/19 05:38:09;;;;;;;;;;;18.60;71.90;;;;;;5053171;28;42903;-76
2023/10/19 05:40:35;;;;;;;;;;;19.80;71.00;;;;;;5052490;28;44415;-76
2023/10/19 05:43:01;;;;;;;;;;;19.70;72.70;;;;;;5050498;28;43076;-76
2023/10/19 05:45:28;;;;;;;;;;;19.90;73.40;;;;;;5053384;28;43286;-76
2023/10/19 05:48:00;;;;;;;;;;;19.70;73.40;;;;;;5064347;28;42945;-76
2023/10/19 05:50:25;;;;;;;;;;;19.80;73.40;;;;;;5064232;28;43249;-76
2023/10/19 05:52:51;;;;;;;;;;;19.90;73.50;;;;;;5063608;28;42840;-76
2023/10/19 05:55:17;;;;;;;;;;;19.80;72.90;;;;;;5027034;28;44054;-77
2023/10/19 05:57:44;;;;;;;;;;;19.70;73.40;;;;;;5045098;28;43064;-77
2023/10/19 06:00:12;;;;;;;;;;;19.90;73.00;;;;;;5055158;28;42919;-76
2023/10/19 06:02:43;;;;;;;;;;;19.80;73.10;;;;;;5067346;28;42771;-76
2023/10/19 06:05:09;;;;;;;;;;;19.80;73.50;;;;;;5067423;28;43842;-76
2023/10/19 06:07:35;;;;;;;;;;;19.80;73.00;;;;;;5066452;28;42796;-75
2023/10/19 06:10:04;;;;;;;;;;;19.90;73.70;;;;;;5065371;28;42751;-75
2023/10/19 06:12:30;;;;;;;;;;;19.70;73.40;;;;;;5051652;28;43011;-75
2023/10/19 06:14:56;;;;;;;;;;;19.90;75.40;;;;;;5047880;28;43688;-75
2023/10/19 06:17:21;;;;;;;;;;;20.00;76.50;;;;;;5045073;28;43053;-75
2023/10/19 06:19:47;;;;;;;;;;;19.80;77.10;;;;;;5050411;28;43435;-78
2023/10/19 06:22:15;;;;;;;;;;;19.80;76.60;;;;;;5151265;22;43027;-74
2023/10/19 06:24:40;;;;;;;;;;;19.90;76.40;;;;;;5029633;28;42951;-75
2023/10/19 06:27:06;;;;;;;;;;;19.70;76.80;;;;;;5046791;28;43006;-76
2023/10/19 06:29:31;;;;;;;;;;;19.80;77.60;;;;;;5021581;28;42808;-76
2023/10/19 06:31:58;;;;;;;;;;;19.70;78.20;;;;;;5010659;28;43105;-75
2023/10/19 06:34:24;;;;;;;;;;;19.80;75.90;;;;;;5024706;28;43019;-76
2023/10/19 06:36:50;;;;;;;;;;;19.50;78.60;;;;;;5026770;28;42997;-75
2023/10/19 06:39:17;;;;;;;;;;;19.70;78.80;;;;;;5006651;28;44981;-76
2023/10/19 06:41:49;;;;;;;;;;;19.90;78.60;;;;;;5026308;28;43029;-75
2023/10/19 06:44:16;;;;;;;;;;;19.40;78.70;;;;;;5022671;28;43667;-75
2023/10/19 06:46:43;;;;;;;;;;;19.50;79.40;;;;;;5004244;28;43027;-76
2023/10/19 06:49:08;;;;;;;;;;;19.60;79.60;;;;;;5011581;28;43017;-75
2023/10/19 06:51:34;;;;;;;;;;;19.40;79.70;;;;;;5023961;28;42972;-75
2023/10/19 06:54:00;;;;;;;;;;;19.40;80.00;;;;;;5017084;28;43591;-75
2023/10/19 06:56:26;;;;;;;;;;;19.30;79.80;;;;;;5006593;28;43020;-76
2023/10/19 06:58:51;;;;;;;;;;;19.40;79.30;;;;;;5031804;28;43023;-76
2023/10/19 07:01:18;;;;;;;;;;;19.40;80.10;;;;;;5048901;28;42856;-75
2023/10/19 07:03:44;;;;;;;;;;;19.30;80.00;;;;;;5006651;28;43825;-76
2023/10/19 07:06:13;;;;;;;;;;;19.50;79.70;;;;;;5006522;28;42810;-75
2023/10/19 07:08:40;;;;;;;;;;;18.20;79.40;;;;;;5006635;28;42955;-76
2023/10/19 07:11:07;;;;;;;;;;;19.50;80.30;;;;;;5011102;28;42927;-76
2023/10/19 07:13:33;;;;;;;;;;;19.40;79.90;;;;;;5025705;28;42952;-75
2023/10/19 07:15:59;;;;;;;;;;;19.60;80.10;;;;;;5026980;28;43017;-75
2023/10/19 07:18:24;;;;;;;;;;;19.30;80.10;;;;;;5025327;28;43608;-75
2023/10/19 07:20:50;;;;;;;;;;;19.00;80.00;;;;;;5037353;28;42905;-76
2023/10/19 07:23:26;;;;;;;;;;;19.20;81.00;;;;;;5011881;28;43265;-75
2023/10/19 07:25:56;;;;;;;;;;;19.30;79.10;;;;;;5027103;28;42840;-72
2023/10/19 07:28:22;;;;;;;;;;;19.30;81.30;;;;;;5023134;28;42907;-75
2023/10/19 07:30:48;;;;;;;;;;;19.20;81.10;;;;;;5016626;28;42809;-76
2023/10/19 07:33:17;;;;;;;;;;;19.30;80.80;;;;;;5018636;28;43316;-75
2023/10/19 07:35:43;;;;;;;;;;;19.30;81.40;;;;;;5018673;28;43042;-75
2023/10/19 07:38:10;;;;;;;;;;;19.10;81.30;;;;;;5017254;28;43507;-75
2023/10/19 07:40:36;;;;;;;;;;;19.30;81.00;;;;;;5019200;28;42865;-75
2023/10/19 07:43:03;;;;;;;;;;;19.30;81.40;;;;;;5022848;28;42811;-76
2023/10/19 07:45:31;;;;;;;;;;;19.20;81.40;;;;;;5027040;28;42934;-75
2023/10/19 07:47:56;;;;;;;;;;;19.20;81.60;;;;;;5028231;28;44534;-75
2023/10/19 07:50:22;;;;;;;;;;;19.50;82.00;;;;;;5026707;28;43110;-75
2023/10/19 07:52:49;;;;;;;;;;;19.20;81.80;;;;;;5027581;28;43674;-76
2023/10/19 07:55:15;;;;;;;;;;;19.20;81.40;;;;;;5027462;28;42946;-75
2023/10/19 07:57:41;;;;;;;;;;;19.10;81.90;;;;;;5026328;28;42894;-76
2023/10/19 08:00:08;;;;;;;;;;;19.10;82.10;;;;;;5040170;28;43025;-76
2023/10/19 08:02:34;;;;;;;;;;;19.20;81.60;;;;;;5031200;28;44410;-75
2023/10/19 08:05:02;;;;;;;;;;;19.20;82.20;;;;;;5008760;28;42772;-75
2023/10/19 08:07:28;;;;;;;;;;;19.20;82.50;;;;;;5024504;28;43548;-76
2023/10/19 08:09:54;;;;;;;;;;;19.50;82.70;;;;;;5024823;28;42964;-75
2023/10/19 08:12:22;;;;;;;;;;;19.10;82.40;;;;;;5026303;28;43715;-75
2023/10/19 08:14:48;;;;;;;;;;;19.10;82.70;;;;;;5024766;28;42967;-76
2023/10/19 08:17:14;;;;;;;;;;;19.00;82.80;;;;;;5026020;28;42971;-74
2023/10/19 08:19:40;;;;;;;;;;;19.30;83.40;;;;;;5026620;28;42933;-75
2023/10/19 08:22:05;;;;;;;;;;;19.20;82.60;;;;;;5023474;28;43261;-76
2023/10/19 08:24:34;;;;;;;;;;;19.20;83.20;;;;;;5026283;28;43254;-75
2023/10/19 08:27:00;;;;;;;;;;;19.20;83.20;;;;;;5025375;28;42974;-75
2023/10/19 08:29:26;;;;;;;;;;;19.20;83.20;;;;;;5034479;28;42851;-76
2023/10/19 08:31:52;;;;;;;;;;;19.30;83.00;;;;;;5036375;28;42861;-76
2023/10/19 08:34:19;;;;;;;;;;;19.10;83.00;;;;;;5029552;28;42911;-76
2023/10/19 08:36:44;;;;;;;;;;;19.10;82.90;;;;;;5026228;28;43560;-75
2023/10/19 08:39:12;;;;;;;;;;;19.30;83.30;;;;;;5027303;28;43172;-75
2023/10/19 08:41:39;;;;;;;;;;;19.20;83.30;;;;;;5027303;28;43012;-75
2023/10/19 08:44:10;;;;;;;;;;;19.10;83.60;;;;;;5025324;28;42987;-76
2023/10/19 08:46:48;;;;;;;;;;;19.20;83.10;;;;;;5027169;28;42956;-76
2023/10/19 08:49:14;;;;;;;;;;;19.10;80.40;;;;;;5033394;28;43074;-76
2023/10/19 08:51:44;;;;;;;;;;;19.20;79.50;;;;;;5023619;28;43432;-77
2023/10/19 08:54:11;;;;;;;;;;;19.60;79.00;;;;;;5026354;28;42960;-77
2023/10/19 08:56:37;;;;;;;;;;;19.30;79.10;;;;;;5008650;28;43804;-76
2023/10/19 08:59:02;;;;;;;;;;;19.50;78.80;;;;;;5025058;28;42956;-76
2023/10/19 09:01:28;;;;;;;;;;;19.30;78.00;;;;;;5025870;28;43386;-75
2023/10/19 09:04:01;;;;;;;;;;;19.40;78.40;;;;;;5027143;28;42985;-76
2023/10/19 09:06:28;;;;;;;;;;;19.50;76.10;;;;;;5026924;28;43986;-75
2023/10/19 09:08:55;;;;;;;;;;;19.60;77.90;;;;;;5026588;28;43031;-75
2023/10/19 09:11:20;;;;;;;;;;;19.40;78.00;;;;;;5027470;28;42952;-76
2023/10/19 09:13:50;;;;;;;;;;;19.50;77.40;;;;;;5025838;28;42948;-76
2023/10/19 09:16:16;;;;;;;;;;;19.60;75.70;;;;;;5025961;28;43533;-76
2023/10/19 09:18:42;;;;;;;;;;;19.30;77.70;;;;;;5012478;28;42910;-76
2023/10/19 09:21:11;;;;;;;;;;;19.50;77.80;;;;;;5005405;28;43577;-75
2023/10/19 09:23:37;;;;;;;;;;;19.60;77.80;;;;;;5003388;28;42854;-75
2023/10/19 09:26:03;;;;;;;;;;;19.30;77.60;;;;;;5004255;28;43927;-75
2023/10/19 09:28:29;;;;;;;;;;;19.40;77.50;;;;;;5006225;28;43043;-76
2023/10/19 09:30:55;;;;;;;;;;;19.40;77.50;;;;;;5005855;28;42804;-76
2023/10/19 09:33:21;;;;;;;;;;;19.60;77.20;;;;;;5005762;28;42987;-75
2023/10/19 09:35:53;;;;;;;;;;;19.60;77.60;;;;;;5006477;28;42941;-76
2023/10/19 09:38:21;;;;;;;;;;;19.60;77.60;;;;;;5006093;28;43028;-75
2023/10/19 09:40:48;;;;;;;;;;;19.60;74.90;;;;;;5005696;28;43566;-76
2023/10/19 09:43:26;;;;;;;;;;;19.50;77.50;;;;;;5005692;28;43132;-76
2023/10/19 09:45:54;;;;;;;;;;;19.60;75.40;;;;;;5006132;28;42863;-76
2023/10/19 09:48:19;;;;;;;;;;;19.60;77.50;;;;;;5006599;28;42795;-76
2023/10/19 09:50:48;;;;;;;;;;;19.70;77.00;;;;;;5006341;28;42772;-75
2023/10/19 09:53:13;;;;;;;;;;;19.60;77.40;;;;;;5005881;28;43285;-76
2023/10/19 09:55:40;;;;;;;;;;;19.50;77.30;;;;;;5004978;28;43444;-75
2023/10/19 10:01:12;;;;;;;;;;;19.60;75.10;;;;;;5006308;28;43226;-76
2023/10/19 10:03:44;;;;;;;;;;;19.30;76.70;;;;;;5005545;28;42970;-77
2023/10/19 10:06:11;;;;;;;;;;;19.40;75.10;;;;;;5006532;28;43423;-76
2023/10/19 10:08:38;;;;;;;;;;;19.50;77.50;;;;;;5016983;28;42830;-74
2023/10/19 10:11:23;;;;;;;;;;;19.60;77.00;;;;;;5024826;28;43103;-75
2023/10/19 10:13:50;;;;;;;;;;;19.80;75.40;;;;;;5027024;28;42758;-76
2023/10/19 10:16:21;;;;;;;;;;;19.60;76.90;;;;;;5024489;28;43327;-75
2023/10/19 10:18:48;;;;;;;;;;;19.50;75.20;;;;;;5025557;28;43053;-76
2023/10/19 10:21:20;;;;;;;;;;;19.60;77.50;;;;;;5025075;28;43688;-75
2023/10/19 10:23:48;;;;;;;;;;;19.60;74.80;;;;;;5024023;28;42762;-76
2023/10/19 10:26:15;;;;;;;;;;;19.60;75.20;;;;;;5025009;28;43021;-76
2023/10/19 10:28:45;;;;;;;;;;;19.60;77.10;;;;;;5016846;28;43016;-76
2023/10/19 10:31:18;;;;;;;;;;;19.70;77.90;;;;;;5024285;28;43913;-76
2023/10/19 10:33:56;;;;;;;;;;;19.60;77.60;;;;;;5028052;28;43072;-75
2023/10/19 10:36:22;;;;;;;;;;;19.60;77.60;;;;;;5028080;28;42932;-76
2023/10/19 10:38:49;;;;;;;;;;;19.60;77.80;;;;;;5027998;28;43087;-75
2023/10/19 10:41:21;;;;;;;;;;;19.70;77.80;;;;;;5027402;28;42890;-76
2023/10/19 10:43:48;;;;;;;;;;;19.60;77.70;;;;;;5027719;28;42980;-76
2023/10/19 10:46:14;;;;;;;;;;;19.70;77.60;;;;;;5028154;28;43396;-76
2023/10/19 10:48:42;;;;;;;;;;;19.80;77.80;;;;;;5027977;28;42976;-76
2023/10/19 10:51:24;;;;;;;;;;;19.60;78.10;;;;;;5027669;28;42998;-75
2023/10/19 10:53:50;;;;;;;;;;;;;;;;;;5027972;28;42921;-77
2023/10/19 10:56:16;;;;;;;;;;;19.70;78.00;;;;;;5031714;28;44735;-76
2023/10/19 10:58:41;;;;;;;;;;;19.60;77.80;;;;;;5035914;28;43082;-76
2023/10/19 11:01:07;;;;;;;;;;;19.70;77.90;;;;;;5030871;28;42772;-78
2023/10/19 11:03:33;;;;;;;;;;;19.80;78.10;;;;;;5022053;28;43032;-76
2023/10/19 11:06:08;;;;;;;;;;;19.60;77.80;;;;;;5008245;28;42975;-75
2023/10/19 11:08:34;;;;;;;;;;;19.70;76.10;;;;;;5008753;28;43080;-76
2023/10/19 11:11:18;;;;;;;;;;;19.70;78.80;;;;;;5015923;28;45528;-78
2023/10/19 11:13:43;;;;;;;;;;;19.70;77.80;;;;;;5006430;28;42964;-79
2023/10/19 11:16:22;;;;;;;;;;;19.50;77.80;;;;;;5023278;28;43850;-76
2023/10/19 11:19:00;;;;;;;;;;;19.70;77.80;;;;;;5018194;28;43075;-76
2023/10/19 11:21:26;;;;;;;;;;;19.80;78.30;;;;;;5018245;28;43823;-75
2023/10/19 11:24:03;;;;;;;;;;;19.70;77.60;;;;;;5028466;28;42847;-80
2023/10/19 11:26:29;;;;;;;;;;;19.00;77.30;;;;;;5026593;28;42953;-77
2023/10/19 11:29:01;;;;;;;;;;;19.70;78.80;;;;;;5042177;22;42991;-75
2023/10/19 11:31:27;;;;;;;;;;;19.50;78.30;;;;;;5043114;28;42957;-75
2023/10/19 11:33:55;;;;;;;;;;;19.60;77.70;;;;;;5047087;28;42888;-75
2023/10/19 11:36:21;;;;;;;;;;;19.80;77.90;;;;;;5047243;28;42949;-76
2023/10/19 11:38:48;;;;;;;;;;;19.70;77.80;;;;;;5047209;28;42975;-75
2023/10/19 11:41:14;;;;;;;;;;;19.80;77.80;;;;;;5055348;28;43467;-75
2023/10/19 11:43:40;;;;;;;;;;;19.70;77.50;;;;;;5061916;28;43051;-76
2023/10/19 11:46:06;;;;;;;;;;;19.60;77.60;;;;;;5065397;28;43448;-76
2023/10/19 11:48:33;;;;;;;;;;;19.80;78.10;;;;;;5065200;28;42929;-75
2023/10/19 11:50:58;;;;;;;;;;;19.90;77.70;;;;;;5045952;28;43523;-75
2023/10/19 11:53:24;;;;;;;;;;;19.80;77.50;;;;;;5046767;28;42927;-75
2023/10/19 11:55:49;;;;;;;;;;;19.70;77.40;;;;;;5046109;28;43539;-75
2023/10/19 11:58:15;;;;;;;;;;;19.60;77.40;;;;;;5049052;28;42842;-75
2023/10/19 12:00:43;;;;;;;;;;;19.90;77.50;;;;;;5046132;28;43061;-75
2023/10/19 12:03:13;;;;;;;;;;;19.60;77.30;;;;;;5046862;28;42994;-75
2023/10/19 12:05:38;;;;;;;;;;;19.60;75.80;;;;;;5050957;28;44376;-75
2023/10/19 12:08:04;;;;;;;;;;;19.70;77.60;;;;;;5064290;28;42951;-75
2023/10/19 12:10:35;;;;;;;;;;;19.80;77.20;;;;;;5051503;28;43713;-76
2023/10/19 12:13:07;;;;;;;;;;;19.90;77.60;;;;;;5051182;28;42901;-75
2023/10/19 12:15:32;;;;;;;;;;;19.70;75.70;;;;;;5048524;28;43415;-76
2023/10/19 12:17:59;;;;;;;;;;;19.70;77.50;;;;;;5032033;28;43165;-75
2023/10/19 12:20:25;;;;;;;;;;;19.60;77.80;;;;;;5033572;28;44595;-75
2023/10/19 12:22:53;;;;;;;;;;;19.70;77.50;;;;;;5046224;28;42905;-75
2023/10/19 12:25:31;;;;;;;;;;;19.80;77.40;;;;;;5059794;28;44314;-76
2023/10/19 12:27:58;;;;;;;;;;;19.70;77.80;;;;;;5040483;28;42904;-76
2023/10/19 12:30:26;;;;;;;;;;;19.70;77.80;;;;;;5058208;28;43621;-75
2023/10/19 12:32:54;;;;;;;;;;;19.70;77.80;;;;;;5045928;28;42849;-75
2023/10/19 12:35:24;;;;;;;;;;;19.60;75.60;;;;;;5058966;28;42850;-75
2023/10/19 12:37:53;;;;;;;;;;;19.70;77.70;;;;;;5064065;28;42952;-75
2023/10/19 12:40:28;;;;;;;;;;;19.60;77.70;;;;;;5055963;28;42879;-75
2023/10/19 12:42:54;;;;;;;;;;;19.70;76.40;;;;;;5030262;28;43150;-75
2023/10/19 12:45:21;;;;;;;;;;;19.80;77.40;;;;;;5058349;28;43031;-76
2023/10/19 12:47:46;;;;;;;;;;;19.70;78.00;;;;;;5050990;28;42979;-76
2023/10/19 12:50:12;;;;;;;;;;;19.60;77.70;;;;;;5045924;28;43542;-75
2023/10/19 12:52:40;;;;;;;;;;;19.70;77.90;;;;;;5046401;28;42776;-75
2023/10/19 12:55:06;;;;;;;;;;;19.90;78.10;;;;;;5044791;28;43000;-75
2023/10/19 12:57:32;;;;;;;;;;;19.70;77.60;;;;;;5061468;28;42976;-75
2023/10/19 13:00:06;;;;;;;;;;;20.10;78.20;;;;;;5060681;28;43156;-76
2023/10/19 13:02:37;;;;;;;;;;;19.80;77.60;;;;;;5042799;28;43152;-75
2023/10/19 13:05:03;;;;;;;;;;;19.80;75.40;;;;;;5067043;28;43776;-75
2023/10/19 13:07:31;;;;;;;;;;;19.70;77.70;;;;;;5065132;28;43074;-75
2023/10/19 13:09:57;;;;;;;;;;;19.80;77.80;;;;;;5065097;28;43641;-76
2023/10/19 13:12:23;;;;;;;;;;;19.70;77.90;;;;;;5048475;28;42884;-75
2023/10/19 13:14:49;;;;;;;;;;;19.80;77.70;;;;;;5048057;28;44433;-76
2023/10/19 13:17:14;;;;;;;;;;;19.60;77.90;;;;;;5064199;28;43028;-75
2023/10/19 13:19:40;;;;;;;;;;;19.50;77.70;;;;;;5047799;28;45088;-75
2023/10/19 13:22:07;;;;;;;;;;;19.80;78.20;;;;;;5064454;28;42955;-75
2023/10/19 13:24:40;;;;;;;;;;;19.60;78.10;;;;;;5068420;28;42924;-76
2023/10/19 13:27:06;;;;;;;;;;;19.80;78.50;;;;;;5051622;28;42943;-76
2023/10/19 13:29:37;;;;;;;;;;;19.80;77.90;;;;;;5071041;28;43267;-78
2023/10/19 13:32:03;;;;;;;;;;;19.90;78.00;;;;;;5067677;28;43053;-75
2023/10/19 13:34:28;;;;;;;;;;;19.60;77.80;;;;;;5068028;28;43053;-75
2023/10/19 13:36:55;;;;;;;;;;;19.70;78.30;;;;;;5066031;28;42827;-75
2023/10/19 13:39:24;;;;;;;;;;;19.70;78.70;;;;;;5051327;28;43482;-75
2023/10/19 13:41:53;;;;;;;;;;;19.80;78.80;;;;;;5047153;28;42912;-74
2023/10/19 13:44:20;;;;;;;;;;;19.60;76.50;;;;;;5046325;28;44051;-75
2023/10/19 13:46:46;;;;;;;;;;;19.90;79.10;;;;;;5045900;28;42927;-75
2023/10/19 13:49:12;;;;;;;;;;;20.00;79.00;;;;;;5062029;28;42978;-76
2023/10/19 13:51:39;;;;;;;;;;;19.90;78.60;;;;;;5057548;28;43042;-76
2023/10/19 13:54:05;;;;;;;;;;;19.70;78.50;;;;;;5057390;28;43756;-75
2023/10/19 13:56:30;;;;;;;;;;;19.70;78.20;;;;;;5066466;28;42945;-75
2023/10/19 13:58:56;;;;;;;;;;;19.70;78.90;;;;;;5061920;28;43629;-75
2023/10/19 14:01:24;;;;;;;;;;;19.80;79.00;;;;;;5054111;28;43097;-74
2023/10/19 14:03:51;;;;;;;;;;;19.70;78.70;;;;;;5054731;28;42962;-74
2023/10/19 14:06:17;;;;;;;;;;;19.70;79.40;;;;;;5054411;28;43570;-75
2023/10/19 14:08:42;;;;;;;;;;;19.30;78.80;;;;;;5064061;28;43339;-75
2023/10/19 14:11:08;;;;;;;;;;;19.70;79.40;;;;;;5059445;28;43219;-75
2023/10/19 14:13:35;;;;;;;;;;;19.80;79.00;;;;;;5060892;28;43125;-76
2023/10/19 14:16:10;;;;;;;;;;;19.80;78.70;;;;;;5061152;28;42959;-76
2023/10/19 14:18:36;;;;;;;;;;;19.80;79.20;;;;;;5063375;28;42971;-75
2023/10/19 14:21:13;;;;;;;;;;;19.80;78.50;;;;;;5061572;28;43133;-75
2023/10/19 14:23:40;;;;;;;;;;;19.80;79.70;;;;;;5044824;28;44733;-76
2023/10/19 14:26:06;;;;;;;;;;;19.80;78.80;;;;;;5059652;28;42950;-75
2023/10/19 14:28:32;;;;;;;;;;;19.80;79.00;;;;;;5061716;28;43665;-77
2023/10/19 14:30:57;;;;;;;;;;;19.70;78.90;;;;;;5059047;28;43015;-77
2023/10/19 14:33:23;;;;;;;;;;;19.80;78.40;;;;;;5061473;28;43121;-77
2023/10/19 14:35:48;;;;;;;;;;;19.80;79.00;;;;;;5066121;28;42996;-76
2023/10/19 14:38:14;;;;;;;;;;;19.70;78.80;;;;;;5061258;28;42898;-77
2023/10/19 14:40:48;;;;;;;;;;;19.80;78.90;;;;;;5064329;28;43106;-76
2023/10/19 14:43:13;;;;;;;;;;;19.70;79.00;;;;;;5038088;28;43823;-76
2023/10/19 14:45:40;;;;;;;;;;;19.80;79.00;;;;;;5033013;28;42969;-75
2023/10/19 14:48:08;;;;;;;;;;;19.70;79.00;;;;;;5051370;28;42939;-77
2023/10/19 14:50:34;;;;;;;;;;;19.80;78.60;;;;;;5032663;28;42991;-76
2023/10/19 14:53:00;;;;;;;;;;;19.80;78.90;;;;;;5050834;28;42924;-76
2023/10/19 14:55:26;;;;;;;;;;;19.90;78.70;;;;;;5051283;28;42865;-75